Alvord, Texas
Current Conditions -  °F | °C
As of 8:15 AM on Monday 26 Jan 2015 (Local Time) from KLUD Reporting Station
Clear Clear  
Wind Chill: 38°   Ceiling: Unl
Heat Index: 41°   Visibility: 10mi
Dew Point: 27°   Wind: 5mph
Humidity: 58%   Direction: 230°SW
Pressure: 30.2"   Gusts: NA
Location:  33.36°N, 97.69°W
Report Text: KLUD 261415Z AUTO 23004KT 10SM CLR 05/M03 A3020 RMK AO2 T00501027
Loading
Personal Weather Stations






























Interactive Weather Map New forecast layout! Learn more

10-Day Weather Forecast

Advertisements
Track Severe Weather on mobile